EST,Max TemperatureF,Mean TemperatureF,Min TemperatureF,Max Dew PointF,MeanDew PointF,Min DewpointF,Max Humidity, Mean Humidity, Min Humidity, Max Sea Level PressureIn, Mean Sea Level PressureIn, Min Sea Level PressureIn, Max VisibilityMiles, Mean VisibilityMiles, Min VisibilityMiles, Max Wind SpeedMPH, Mean Wind SpeedMPH, Max Gust SpeedMPH,PrecipitationIn, CloudCover, Events, WindDirDegrees
2011-11-1,55,44,32,39,36,32,100,81,41,30.16,30.13,30.06,10,7,2,14,4,22,0.00,4,,185
2011-11-2,59,48,37,46,40,34,87,67,55,30.06,30.02,29.95,10,10,10,13,5,23,0.00,4,Rain,192
2011-11-3,46,40,35,41,37,32,100,84,57,30.15,30.09,30.03,10,10,5,13,7,21,0.00,5,Rain,32
2011-11-4,50,36,23,34,30,23,100,84,50,30.34,30.28,30.21,10,10,10,8,1,,0.00,0,,129
2011-11-5,51,37,23,37,30,23,100,82,47,30.32,30.25,30.13,10,10,5,14,2,20,0.00,0,,159
2011-11-6,62,46,30,48,37,28,93,74,59,30.13,30.05,29.96,10,10,10,23,8,33,0.00,2,,186
2011-11-7,57,44,32,45,32,28,100,60,33,30.22,30.18,30.05,10,10,10,14,5,23,0.00,2,,248
2011-11-8,42,38,33,43,39,34,100,97,87,30.21,30.09,29.98,10,7,2,10,2,,0.00,8,Rain-Snow,65
2011-11-9,55,45,35,55,43,36,100,97,76,29.98,29.67,29.41,10,7,1,30,7,40,0.00,8,Rain-Snow,129
2011-11-10,37,34,32,36,33,30,100,93,75,29.85,29.81,29.76,10,9,2,18,9,24,0.00,6,Snow,268
2011-11-11,37,34,30,32,31,30,100,90,75,29.91,29.84,29.72,10,9,0,13,6,21,0.00,7,Snow,244
2011-11-12,55,42,28,41,35,28,100,80,51,29.75,29.71,29.65,10,9,4,16,6,28,0.00,0,,195
2011-11-13,59,54,50,52,46,37,88,73,54,29.61,29.43,29.29,10,10,10,21,13,33,0.00,6,Rain,207
2011-11-14,50,41,32,43,38,32,100,86,71,29.64,29.58,29.50,10,9,1,9,4,16,0.00,3,Rain,211
2011-11-15,55,40,26,43,35,27,100,78,41,29.76,29.70,29.65,10,7,0,18,5,24,0.00,3,Fog,191
2011-11-16,43,33,23,36,26,21,89,73,62,30.01,29.89,29.74,10,10,10,20,8,26,0.00,3,,289
2011-11-17,30,26,21,25,21,18,93,72,62,30.12,30.01,29.95,10,10,3,16,6,24,0.00,7,Snow,272
2011-11-18,47,34,20,28,21,17,93,59,32,30.15,30.01,29.86,10,10,10,30,8,40,0.00,1,,194
2011-11-19,47,42,36,45,32,23,97,65,54,29.89,29.83,29.70,10,10,7,15,8,22,0.00,7,Rain,180
2011-11-20,52,42,30,50,33,25,99,86,78,30.32,30.13,29.70,10,10,5,23,10,30,0.00,8,Rain,333
2011-11-21,41,32,24,30,27,23,97,79,64,30.36,30.31,30.26,10,10,10,7,1,,0.00,5,,76
2011-11-22,37,30,22,32,29,23,100,89,76,30.29,30.09,29.92,10,10,7,10,3,18,0.00,3,,72
2011-11-23,48,35,22,40,32,22,100,86,54,30.15,30.07,29.94,10,10,7,9,4,,0.00,1,,279
2011-11-24,44,38,31,42,40,32,100,95,84,30.14,30.09,30.01,7,4,0,17,8,24,0.00,7,Fog,223
2011-11-25,53,45,37,42,41,38,100,84,65,29.99,29.91,29.85,10,8,4,17,8,25,0.00,3,,197
2011-11-26,53,50,46,52,47,42,100,87,72,29.91,29.83,29.73,10,7,1,15,6,23,0.00,7,Rain,179
2011-11-27,49,40,32,49,38,29,100,95,85,30.07,29.86,29.69,10,9,1,14,8,23,0.00,8,Rain-Snow,335
2011-11-28,35,32,29,30,30,28,100,87,78,30.13,30.08,30.01,10,10,10,9,4,,0.00,7,,6
2011-11-29,37,34,30,32,30,23,100,83,70,30.01,29.91,29.82,10,10,10,23,11,32,0.00,6,,18
2011-11-30,42,36,29,28,24,14,86,67,35,30.03,29.89,29.77,10,10,10,16,10,23,0.00,0,,313